sensor_id;sensor_type;location;lat;lon;timestamp;temperature;humidity
40828;DHT22;26549;50.918;5.338;2023-01-09T00:01:48;9.70;99.90
40828;DHT22;26549;50.918;5.338;2023-01-09T00:04:14;9.80;99.90
40828;DHT22;26549;50.918;5.338;2023-01-09T00:06:41;9.70;99.90
40828;DHT22;26549;50.918;5.338;2023-01-09T00:09:09;9.80;99.90
40828;DHT22;26549;50.918;5.338;2023-01-09T00:11:35;9.80;99.90
40828;DHT22;26549;50.918;5.338;2023-01-09T00:14:02;9.70;99.90
40828;DHT22;26549;50.918;5.338;2023-01-09T00:16:28;9.80;99.90
40828;DHT22;26549;50.918;5.338;2023-01-09T00:18:54;9.80;99.90
40828;DHT22;26549;50.918;5.338;2023-01-09T00:21:21;9.80;99.90
40828;DHT22;26549;50.918;5.338;2023-01-09T00:23:47;9.70;99.90
40828;DHT22;26549;50.918;5.338;2023-01-09T00:26:17;9.70;99.90
40828;DHT22;26549;50.918;5.338;2023-01-09T00:28:44;9.60;99.90
40828;DHT22;26549;50.918;5.338;2023-01-09T00:31:11;9.50;99.90
40828;DHT22;26549;50.918;5.338;2023-01-09T00:33:43;9.40;99.90
40828;DHT22;26549;50.918;5.338;2023-01-09T00:36:10;9.40;99.90
40828;DHT22;26549;50.918;5.338;2023-01-09T00:38:36;9.40;99.90
40828;DHT22;26549;50.918;5.338;2023-01-09T00:41:05;9.50;99.90
40828;DHT22;26549;50.918;5.338;2023-01-09T00:43:36;9.40;99.90
40828;DHT22;26549;50.918;5.338;2023-01-09T00:46:05;9.30;99.90
40828;DHT22;26549;50.918;5.338;2023-01-09T00:48:32;9.20;99.90
40828;DHT22;26549;50.918;5.338;2023-01-09T00:50:59;9.20;99.90
40828;DHT22;26549;50.918;5.338;2023-01-09T00:53:28;9.40;99.90
40828;DHT22;26549;50.918;5.338;2023-01-09T00:56:02;9.40;99.90
40828;DHT22;26549;50.918;5.338;2023-01-09T00:58:31;9.30;99.90
40828;DHT22;26549;50.918;5.338;2023-01-09T01:00:58;9.20;99.90
40828;DHT22;26549;50.918;5.338;2023-01-09T01:03:24;9.30;99.90
40828;DHT22;26549;50.918;5.338;2023-01-09T01:05:50;9.30;99.90
40828;DHT22;26549;50.918;5.338;2023-01-09T01:08:34;9.20;99.90
40828;DHT22;26549;50.918;5.338;2023-01-09T01:11:04;9.20;99.90
40828;DHT22;26549;50.918;5.338;2023-01-09T01:13:31;9.30;99.90
40828;DHT22;26549;50.918;5.338;2023-01-09T01:15:57;9.20;99.90
40828;DHT22;26549;50.918;5.338;2023-01-09T01:18:23;9.20;99.90
40828;DHT22;26549;50.918;5.338;2023-01-09T01:20:49;9.20;99.90
40828;DHT22;26549;50.918;5.338;2023-01-09T01:23:15;9.10;99.90
40828;DHT22;26549;50.918;5.338;2023-01-09T01:25:41;9.10;99.90
40828;DHT22;26549;50.918;5.338;2023-01-09T01:28:07;9.10;99.90
40828;DHT22;26549;50.918;5.338;2023-01-09T01:30:41;9.10;99.90
40828;DHT22;26549;50.918;5.338;2023-01-09T01:33:08;9.10;99.90
40828;DHT22;26549;50.918;5.338;2023-01-09T01:35:35;9.10;99.90
40828;DHT22;26549;50.918;5.338;2023-01-09T01:38:01;9.10;99.90
40828;DHT22;26549;50.918;5.338;2023-01-09T01:40:27;9.10;99.90
40828;DHT22;26549;50.918;5.338;2023-01-09T01:42:54;8.90;99.90
40828;DHT22;26549;50.918;5.338;2023-01-09T01:45:27;9.10;99.90
40828;DHT22;26549;50.918;5.338;2023-01-09T01:48:12;9.00;99.90
40828;DHT22;26549;50.918;5.338;2023-01-09T01:51:00;8.90;99.90
40828;DHT22;26549;50.918;5.338;2023-01-09T01:53:32;8.90;99.90
40828;DHT22;26549;50.918;5.338;2023-01-09T01:56:19;8.90;99.90
40828;DHT22;26549;50.918;5.338;2023-01-09T01:58:51;8.90;99.90
40828;DHT22;26549;50.918;5.338;2023-01-09T02:01:20;8.70;99.90
40828;DHT22;26549;50.918;5.338;2023-01-09T02:03:47;8.80;99.90
40828;DHT22;26549;50.918;5.338;2023-01-09T02:06:14;8.90;99.90
40828;DHT22;26549;50.918;5.338;2023-01-09T02:08:41;8.80;99.90
40828;DHT22;26549;50.918;5.338;2023-01-09T02:11:07;8.70;99.90
40828;DHT22;26549;50.918;5.338;2023-01-09T02:13:35;8.70;99.90
40828;DHT22;26549;50.918;5.338;2023-01-09T02:16:21;8.70;99.90
40828;DHT22;26549;50.918;5.338;2023-01-09T02:18:59;8.60;99.90
40828;DHT22;26549;50.918;5.338;2023-01-09T02:24:47;8.70;99.90
40828;DHT22;26549;50.918;5.338;2023-01-09T02:27:28;8.70;99.90
40828;DHT22;26549;50.918;5.338;2023-01-09T02:30:25;8.70;99.90
40828;DHT22;26549;50.918;5.338;2023-01-09T02:35:42;8.50;99.90
40828;DHT22;26549;50.918;5.338;2023-01-09T02:41:01;8.30;99.90
40828;DHT22;26549;50.918;5.338;2023-01-09T02:43:30;8.40;99.90
40828;DHT22;26549;50.918;5.338;2023-01-09T02:45:57;8.50;99.90
40828;DHT22;26549;50.918;5.338;2023-01-09T02:48:23;8.50;99.90
40828;DHT22;26549;50.918;5.338;2023-01-09T02:53:31;8.40;99.90
40828;DHT22;26549;50.918;5.338;2023-01-09T02:58:58;8.40;99.90
40828;DHT22;26549;50.918;5.338;2023-01-09T03:01:44;8.30;99.90
40828;DHT22;26549;50.918;5.338;2023-01-09T03:04:40;8.30;99.90
40828;DHT22;26549;50.918;5.338;2023-01-09T03:07:38;8.20;99.90
40828;DHT22;26549;50.918;5.338;2023-01-09T03:12:54;8.30;99.90
40828;DHT22;26549;50.918;5.338;2023-01-09T03:15:24;8.30;99.90
40828;DHT22;26549;50.918;5.338;2023-01-09T03:17:51;8.40;99.90
40828;DHT22;26549;50.918;5.338;2023-01-09T03:20:21;8.40;99.90
40828;DHT22;26549;50.918;5.338;2023-01-09T03:22:56;8.50;99.90
40828;DHT22;26549;50.918;5.338;2023-01-09T03:25:23;8.50;99.90
40828;DHT22;26549;50.918;5.338;2023-01-09T03:27:58;8.50;99.90
40828;DHT22;26549;50.918;5.338;2023-01-09T03:30:26;8.60;99.90
40828;DHT22;26549;50.918;5.338;2023-01-09T03:32:53;8.60;99.90
40828;DHT22;26549;50.918;5.338;2023-01-09T03:35:19;8.70;99.90
40828;DHT22;26549;50.918;5.338;2023-01-09T03:37:45;8.70;99.90
40828;DHT22;26549;50.918;5.338;2023-01-09T03:40:11;8.80;99.90
40828;DHT22;26549;50.918;5.338;2023-01-09T03:42:37;8.70;99.90
40828;DHT22;26549;50.918;5.338;2023-01-09T03:45:04;8.70;99.90
40828;DHT22;26549;50.918;5.338;2023-01-09T03:47:31;8.70;99.90
40828;DHT22;26549;50.918;5.338;2023-01-09T03:49:57;8.60;99.90
40828;DHT22;26549;50.918;5.338;2023-01-09T03:52:26;8.80;99.90
40828;DHT22;26549;50.918;5.338;2023-01-09T03:54:52;8.90;99.90
40828;DHT22;26549;50.918;5.338;2023-01-09T03:57:18;8.90;99.90
40828;DHT22;26549;50.918;5.338;2023-01-09T03:59:44;9.00;99.90
40828;DHT22;26549;50.918;5.338;2023-01-09T04:02:10;8.90;99.90
40828;DHT22;26549;50.918;5.338;2023-01-09T04:04:36;8.90;99.90
40828;DHT22;26549;50.918;5.338;2023-01-09T04:07:02;9.00;99.90
40828;DHT22;26549;50.918;5.338;2023-01-09T04:09:28;9.00;99.90
40828;DHT22;26549;50.918;5.338;2023-01-09T04:11:54;9.00;99.90
40828;DHT22;26549;50.918;5.338;2023-01-09T04:14:20;9.00;99.90
40828;DHT22;26549;50.918;5.338;2023-01-09T04:16:46;9.00;99.90
40828;DHT22;26549;50.918;5.338;2023-01-09T04:19:12;9.00;99.90
40828;DHT22;26549;50.918;5.338;2023-01-09T04:21:38;9.00;99.90
40828;DHT22;26549;50.918;5.338;2023-01-09T04:24:04;9.00;99.90
40828;DHT22;26549;50.918;5.338;2023-01-09T04:26:30;9.00;99.90
40828;DHT22;26549;50.918;5.338;2023-01-09T04:28:56;9.10;99.90
40828;DHT22;26549;50.918;5.338;2023-01-09T04:31:22;9.10;99.90
40828;DHT22;26549;50.918;5.338;2023-01-09T04:33:48;9.00;99.90
40828;DHT22;26549;50.918;5.338;2023-01-09T04:36:14;9.20;99.90
40828;DHT22;26549;50.918;5.338;2023-01-09T04:38:40;9.20;99.90
40828;DHT22;26549;50.918;5.338;2023-01-09T04:41:06;9.10;99.90
40828;DHT22;26549;50.918;5.338;2023-01-09T04:43:32;9.20;99.90
40828;DHT22;26549;50.918;5.338;2023-01-09T04:45:58;9.30;99.90
40828;DHT22;26549;50.918;5.338;2023-01-09T04:48:24;9.30;99.90
40828;DHT22;26549;50.918;5.338;2023-01-09T04:50:50;9.30;99.90
40828;DHT22;26549;50.918;5.338;2023-01-09T04:53:16;9.30;99.90
40828;DHT22;26549;50.918;5.338;2023-01-09T04:55:42;9.30;99.90
40828;DHT22;26549;50.918;5.338;2023-01-09T04:58:08;9.30;99.90
40828;DHT22;26549;50.918;5.338;2023-01-09T05:00:34;9.20;99.90
40828;DHT22;26549;50.918;5.338;2023-01-09T05:03:00;9.20;99.90
40828;DHT22;26549;50.918;5.338;2023-01-09T05:05:27;9.30;99.90
40828;DHT22;26549;50.918;5.338;2023-01-09T05:07:53;9.40;99.90
40828;DHT22;26549;50.918;5.338;2023-01-09T05:10:19;9.30;99.90
40828;DHT22;26549;50.918;5.338;2023-01-09T05:12:45;9.40;99.90
40828;DHT22;26549;50.918;5.338;2023-01-09T05:15:11;9.30;99.90
40828;DHT22;26549;50.918;5.338;2023-01-09T05:17:37;9.20;99.90
40828;DHT22;26549;50.918;5.338;2023-01-09T05:20:04;9.20;99.90
40828;DHT22;26549;50.918;5.338;2023-01-09T05:22:30;9.20;99.90
40828;DHT22;26549;50.918;5.338;2023-01-09T05:24:56;9.30;99.90
40828;DHT22;26549;50.918;5.338;2023-01-09T05:27:22;9.20;99.90
40828;DHT22;26549;50.918;5.338;2023-01-09T05:29:48;9.30;99.90
40828;DHT22;26549;50.918;5.338;2023-01-09T05:32:14;9.30;99.90
40828;DHT22;26549;50.918;5.338;2023-01-09T05:34:39;9.40;99.90
40828;DHT22;26549;50.918;5.338;2023-01-09T05:37:05;9.40;99.90
40828;DHT22;26549;50.918;5.338;2023-01-09T05:39:31;9.40;99.90
40828;DHT22;26549;50.918;5.338;2023-01-09T05:41:57;9.40;99.90
40828;DHT22;26549;50.918;5.338;2023-01-09T05:44:23;9.30;99.90
40828;DHT22;26549;50.918;5.338;2023-01-09T05:46:49;9.30;99.90
40828;DHT22;26549;50.918;5.338;2023-01-09T05:49:15;9.20;99.90
40828;DHT22;26549;50.918;5.338;2023-01-09T05:51:41;9.30;99.90
40828;DHT22;26549;50.918;5.338;2023-01-09T05:54:07;9.40;99.90
40828;DHT22;26549;50.918;5.338;2023-01-09T05:56:33;9.60;99.90
40828;DHT22;26549;50.918;5.338;2023-01-09T05:58:59;9.60;99.90
40828;DHT22;26549;50.918;5.338;2023-01-09T06:01:25;9.60;99.90
40828;DHT22;26549;50.918;5.338;2023-01-09T06:03:51;9.50;99.90
40828;DHT22;26549;50.918;5.338;2023-01-09T06:06:17;9.70;99.90
40828;DHT22;26549;50.918;5.338;2023-01-09T06:08:43;9.70;99.90
40828;DHT22;26549;50.918;5.338;2023-01-09T06:11:09;9.70;99.90
40828;DHT22;26549;50.918;5.338;2023-01-09T06:13:35;9.60;99.90
40828;DHT22;26549;50.918;5.338;2023-01-09T06:16:01;9.60;99.90
40828;DHT22;26549;50.918;5.338;2023-01-09T06:18:27;9.50;99.90
40828;DHT22;26549;50.918;5.338;2023-01-09T06:20:53;9.60;99.90
40828;DHT22;26549;50.918;5.338;2023-01-09T06:23:19;9.60;99.90
40828;DHT22;26549;50.918;5.338;2023-01-09T06:25:45;9.70;99.90
40828;DHT22;26549;50.918;5.338;2023-01-09T06:28:11;9.80;99.90
40828;DHT22;26549;50.918;5.338;2023-01-09T06:30:36;9.70;99.90
40828;DHT22;26549;50.918;5.338;2023-01-09T06:33:02;9.70;99.90
40828;DHT22;26549;50.918;5.338;2023-01-09T06:35:28;9.60;99.90
40828;DHT22;26549;50.918;5.338;2023-01-09T06:37:54;9.60;99.90
40828;DHT22;26549;50.918;5.338;2023-01-09T06:40:19;9.60;99.90
40828;DHT22;26549;50.918;5.338;2023-01-09T06:42:46;9.60;99.90
40828;DHT22;26549;50.918;5.338;2023-01-09T06:45:12;9.70;99.90
40828;DHT22;26549;50.918;5.338;2023-01-09T06:47:39;9.70;99.90
40828;DHT22;26549;50.918;5.338;2023-01-09T06:50:06;9.70;99.90
40828;DHT22;26549;50.918;5.338;2023-01-09T06:52:32;9.60;99.90
40828;DHT22;26549;50.918;5.338;2023-01-09T06:54:58;9.50;99.90
40828;DHT22;26549;50.918;5.338;2023-01-09T06:57:23;9.60;99.90
40828;DHT22;26549;50.918;5.338;2023-01-09T06:59:49;9.70;99.90
40828;DHT22;26549;50.918;5.338;2023-01-09T07:02:19;9.60;99.90
40828;DHT22;26549;50.918;5.338;2023-01-09T07:04:46;9.60;99.90
40828;DHT22;26549;50.918;5.338;2023-01-09T07:07:11;9.60;99.90
40828;DHT22;26549;50.918;5.338;2023-01-09T07:09:37;9.60;99.90
40828;DHT22;26549;50.918;5.338;2023-01-09T07:12:03;9.70;99.90
40828;DHT22;26549;50.918;5.338;2023-01-09T07:14:29;9.80;99.90
40828;DHT22;26549;50.918;5.338;2023-01-09T07:16:58;9.60;99.90
40828;DHT22;26549;50.918;5.338;2023-01-09T07:19:23;9.60;99.90
40828;DHT22;26549;50.918;5.338;2023-01-09T07:21:52;9.70;99.90
40828;DHT22;26549;50.918;5.338;2023-01-09T07:24:21;9.70;99.90
40828;DHT22;26549;50.918;5.338;2023-01-09T07:26:47;9.50;99.90
40828;DHT22;26549;50.918;5.338;2023-01-09T07:29:14;9.60;99.90
40828;DHT22;26549;50.918;5.338;2023-01-09T07:31:43;9.60;99.90
40828;DHT22;26549;50.918;5.338;2023-01-09T07:34:09;9.50;99.90
40828;DHT22;26549;50.918;5.338;2023-01-09T07:36:38;9.70;99.90
40828;DHT22;26549;50.918;5.338;2023-01-09T07:39:06;9.70;99.90
40828;DHT22;26549;50.918;5.338;2023-01-09T07:41:34;9.70;99.90
40828;DHT22;26549;50.918;5.338;2023-01-09T07:44:00;9.70;99.90
40828;DHT22;26549;50.918;5.338;2023-01-09T07:46:25;9.70;99.90
40828;DHT22;26549;50.918;5.338;2023-01-09T07:48:53;9.70;99.90
40828;DHT22;26549;50.918;5.338;2023-01-09T07:51:18;9.70;99.90
40828;DHT22;26549;50.918;5.338;2023-01-09T07:53:44;9.70;99.90
40828;DHT22;26549;50.918;5.338;2023-01-09T07:56:10;9.70;99.90
40828;DHT22;26549;50.918;5.338;2023-01-09T07:58:37;9.70;99.90
40828;DHT22;26549;50.918;5.338;2023-01-09T08:01:04;9.70;99.90
40828;DHT22;26549;50.918;5.338;2023-01-09T08:03:33;9.90;99.90
40828;DHT22;26549;50.918;5.338;2023-01-09T08:06:00;9.80;99.90
40828;DHT22;26549;50.918;5.338;2023-01-09T08:08:28;9.80;99.90
40828;DHT22;26549;50.918;5.338;2023-01-09T08:10:56;9.80;99.90
40828;DHT22;26549;50.918;5.338;2023-01-09T08:13:28;9.80;99.90
40828;DHT22;26549;50.918;5.338;2023-01-09T08:15:54;9.70;99.90
40828;DHT22;26549;50.918;5.338;2023-01-09T08:18:20;9.70;99.90
40828;DHT22;26549;50.918;5.338;2023-01-09T08:20:47;9.80;99.90
40828;DHT22;26549;50.918;5.338;2023-01-09T08:23:16;9.80;99.90
40828;DHT22;26549;50.918;5.338;2023-01-09T08:25:43;9.90;99.90
40828;DHT22;26549;50.918;5.338;2023-01-09T08:28:09;9.90;99.90
40828;DHT22;26549;50.918;5.338;2023-01-09T08:30:35;9.80;99.90
40828;DHT22;26549;50.918;5.338;2023-01-09T08:33:01;9.80;99.90
40828;DHT22;26549;50.918;5.338;2023-01-09T08:35:28;9.70;99.90
40828;DHT22;26549;50.918;5.338;2023-01-09T08:37:54;9.80;99.90
40828;DHT22;26549;50.918;5.338;2023-01-09T08:40:20;9.70;99.90
40828;DHT22;26549;50.918;5.338;2023-01-09T08:42:46;9.80;99.90
40828;DHT22;26549;50.918;5.338;2023-01-09T08:45:32;9.80;99.90
40828;DHT22;26549;50.918;5.338;2023-01-09T08:48:17;9.80;99.90
40828;DHT22;26549;50.918;5.338;2023-01-09T08:50:49;9.80;99.90
40828;DHT22;26549;50.918;5.338;2023-01-09T08:53:15;9.80;99.90
40828;DHT22;26549;50.918;5.338;2023-01-09T08:55:41;9.80;99.90
40828;DHT22;26549;50.918;5.338;2023-01-09T08:58:08;9.90;99.90
40828;DHT22;26549;50.918;5.338;2023-01-09T09:00:34;10.00;99.90
40828;DHT22;26549;50.918;5.338;2023-01-09T09:03:00;10.00;99.90
40828;DHT22;26549;50.918;5.338;2023-01-09T09:05:29;10.00;99.90
40828;DHT22;26549;50.918;5.338;2023-01-09T09:07:57;10.00;99.90
40828;DHT22;26549;50.918;5.338;2023-01-09T09:10:25;10.10;99.90
40828;DHT22;26549;50.918;5.338;2023-01-09T09:12:55;10.20;99.90
40828;DHT22;26549;50.918;5.338;2023-01-09T09:15:25;10.20;99.90
40828;DHT22;26549;50.918;5.338;2023-01-09T09:17:59;10.20;99.90
40828;DHT22;26549;50.918;5.338;2023-01-09T09:20:31;10.10;99.90
40828;DHT22;26549;50.918;5.338;2023-01-09T09:22:57;10.10;99.90
40828;DHT22;26549;50.918;5.338;2023-01-09T09:25:26;10.20;99.90
40828;DHT22;26549;50.918;5.338;2023-01-09T09:27:52;9.90;99.90
40828;DHT22;26549;50.918;5.338;2023-01-09T09:30:19;9.90;99.90
40828;DHT22;26549;50.918;5.338;2023-01-09T09:32:46;10.00;99.90
40828;DHT22;26549;50.918;5.338;2023-01-09T09:35:13;10.00;99.90
40828;DHT22;26549;50.918;5.338;2023-01-09T09:37:40;10.00;99.90
40828;DHT22;26549;50.918;5.338;2023-01-09T09:40:15;10.00;99.90
40828;DHT22;26549;50.918;5.338;2023-01-09T09:43:00;9.90;99.90
40828;DHT22;26549;50.918;5.338;2023-01-09T09:45:55;9.80;99.90
40828;DHT22;26549;50.918;5.338;2023-01-09T09:48:35;9.90;99.90
40828;DHT22;26549;50.918;5.338;2023-01-09T09:54:12;10.10;99.90
40828;DHT22;26549;50.918;5.338;2023-01-09T09:57:10;10.00;99.90
40828;DHT22;26549;50.918;5.338;2023-01-09T09:59:40;10.00;99.90
40828;DHT22;26549;50.918;5.338;2023-01-09T10:05:33;9.90;99.90
40828;DHT22;26549;50.918;5.338;2023-01-09T10:08:05;9.80;99.90
40828;DHT22;26549;50.918;5.338;2023-01-09T10:10:41;9.90;99.90
40828;DHT22;26549;50.918;5.338;2023-01-09T10:13:10;9.90;99.90
40828;DHT22;26549;50.918;5.338;2023-01-09T10:33:25;9.70;99.90
40828;DHT22;26549;50.918;5.338;2023-01-09T10:38:56;9.50;99.90
40828;DHT22;26549;50.918;5.338;2023-01-09T10:41:39;9.60;99.90
40828;DHT22;26549;50.918;5.338;2023-01-09T10:44:31;9.50;99.90
40828;DHT22;26549;50.918;5.338;2023-01-09T10:47:09;9.50;99.90
40828;DHT22;26549;50.918;5.338;2023-01-09T10:49:38;9.50;99.90
40828;DHT22;26549;50.918;5.338;2023-01-09T10:54:42;9.60;99.90
40828;DHT22;26549;50.918;5.338;2023-01-09T10:57:26;9.60;99.90
40828;DHT22;26549;50.918;5.338;2023-01-09T10:59:57;9.60;99.90
40828;DHT22;26549;50.918;5.338;2023-01-09T11:02:30;9.70;99.90
40828;DHT22;26549;50.918;5.338;2023-01-09T11:04:57;9.70;99.90
40828;DHT22;26549;50.918;5.338;2023-01-09T11:07:27;9.70;99.90
40828;DHT22;26549;50.918;5.338;2023-01-09T11:10:02;9.80;99.90
40828;DHT22;26549;50.918;5.338;2023-01-09T11:12:30;9.70;99.90
40828;DHT22;26549;50.918;5.338;2023-01-09T11:17:46;9.70;99.90
40828;DHT22;26549;50.918;5.338;2023-01-09T11:20:16;9.70;99.90
40828;DHT22;26549;50.918;5.338;2023-01-09T11:22:47;9.60;99.90
40828;DHT22;26549;50.918;5.338;2023-01-09T11:25:15;9.70;99.90
40828;DHT22;26549;50.918;5.338;2023-01-09T11:27:42;9.70;99.90
40828;DHT22;26549;50.918;5.338;2023-01-09T11:32:34;9.60;99.90
40828;DHT22;26549;50.918;5.338;2023-01-09T11:35:04;9.60;99.90
40828;DHT22;26549;50.918;5.338;2023-01-09T11:37:31;9.80;99.90
40828;DHT22;26549;50.918;5.338;2023-01-09T11:39:58;9.90;99.90
40828;DHT22;26549;50.918;5.338;2023-01-09T11:42:27;9.90;99.90
40828;DHT22;26549;50.918;5.338;2023-01-09T11:45:26;9.80;99.90
40828;DHT22;26549;50.918;5.338;2023-01-09T11:47:53;10.10;99.90
40828;DHT22;26549;50.918;5.338;2023-01-09T11:50:21;10.10;99.90
40828;DHT22;26549;50.918;5.338;2023-01-09T11:53:13;10.10;99.90
40828;DHT22;26549;50.918;5.338;2023-01-09T11:55:42;10.00;99.90
40828;DHT22;26549;50.918;5.338;2023-01-09T11:58:19;10.10;99.90
40828;DHT22;26549;50.918;5.338;2023-01-09T12:56:37;10.10;99.90
40828;DHT22;26549;50.918;5.338;2023-01-09T12:59:25;10.00;99.90
40828;DHT22;26549;50.918;5.338;2023-01-09T13:04:57;9.90;99.90
40828;DHT22;26549;50.918;5.338;2023-01-09T13:07:39;10.00;99.90
40828;DHT22;26549;50.918;5.338;2023-01-09T13:10:31;10.10;99.90
40828;DHT22;26549;50.918;5.338;2023-01-09T13:13:03;10.00;99.90
40828;DHT22;26549;50.918;5.338;2023-01-09T13:15:41;10.00;99.90
40828;DHT22;26549;50.918;5.338;2023-01-09T13:18:19;10.00;99.90
40828;DHT22;26549;50.918;5.338;2023-01-09T13:20:52;9.90;99.90
40828;DHT22;26549;50.918;5.338;2023-01-09T13:28:59;10.10;99.90
40828;DHT22;26549;50.918;5.338;2023-01-09T13:34:20;9.90;99.90
40828;DHT22;26549;50.918;5.338;2023-01-09T13:36:49;9.90;99.90
40828;DHT22;26549;50.918;5.338;2023-01-09T13:39:21;9.90;99.90
40828;DHT22;26549;50.918;5.338;2023-01-09T13:41:53;9.90;99.90
40828;DHT22;26549;50.918;5.338;2023-01-09T13:44:40;9.90;99.90
40828;DHT22;26549;50.918;5.338;2023-01-09T13:47:20;9.90;99.90
40828;DHT22;26549;50.918;5.338;2023-01-09T13:52:40;10.00;99.90
40828;DHT22;26549;50.918;5.338;2023-01-09T14:08:03;10.00;99.90
40828;DHT22;26549;50.918;5.338;2023-01-09T14:13:24;10.00;99.90
40828;DHT22;26549;50.918;5.338;2023-01-09T14:15:52;10.10;99.90
40828;DHT22;26549;50.918;5.338;2023-01-09T14:18:28;10.10;99.90
40828;DHT22;26549;50.918;5.338;2023-01-09T14:21:01;10.00;99.90
40828;DHT22;26549;50.918;5.338;2023-01-09T14:23:44;10.10;99.90
40828;DHT22;26549;50.918;5.338;2023-01-09T14:26:23;10.00;99.90
40828;DHT22;26549;50.918;5.338;2023-01-09T14:28:49;10.00;99.90
40828;DHT22;26549;50.918;5.338;2023-01-09T14:31:30;10.00;99.90
40828;DHT22;26549;50.918;5.338;2023-01-09T14:34:26;10.10;99.90
40828;DHT22;26549;50.918;5.338;2023-01-09T14:36:58;10.20;99.90
40828;DHT22;26549;50.918;5.338;2023-01-09T14:39:25;10.20;99.90
40828;DHT22;26549;50.918;5.338;2023-01-09T14:41:56;10.30;99.90
40828;DHT22;26549;50.918;5.338;2023-01-09T14:44:28;10.30;99.90
40828;DHT22;26549;50.918;5.338;2023-01-09T14:46:59;10.10;99.90
40828;DHT22;26549;50.918;5.338;2023-01-09T14:49:42;10.30;99.90
40828;DHT22;26549;50.918;5.338;2023-01-09T14:52:21;10.00;99.90
40828;DHT22;26549;50.918;5.338;2023-01-09T14:54:49;10.00;99.90
40828;DHT22;26549;50.918;5.338;2023-01-09T14:57:27;10.00;99.90
40828;DHT22;26549;50.918;5.338;2023-01-09T14:59:56;10.10;99.90
40828;DHT22;26549;50.918;5.338;2023-01-09T15:02:22;10.10;99.90
40828;DHT22;26549;50.918;5.338;2023-01-09T15:04:54;10.00;99.90
40828;DHT22;26549;50.918;5.338;2023-01-09T15:07:22;10.10;99.90
40828;DHT22;26549;50.918;5.338;2023-01-09T15:09:50;10.10;99.90
40828;DHT22;26549;50.918;5.338;2023-01-09T15:12:21;10.20;99.90
40828;DHT22;26549;50.918;5.338;2023-01-09T15:14:53;10.10;99.90
40828;DHT22;26549;50.918;5.338;2023-01-09T15:17:23;10.10;99.90
40828;DHT22;26549;50.918;5.338;2023-01-09T15:19:50;10.10;99.90
40828;DHT22;26549;50.918;5.338;2023-01-09T15:22:26;10.20;99.90
40828;DHT22;26549;50.918;5.338;2023-01-09T15:24:52;10.20;99.90
40828;DHT22;26549;50.918;5.338;2023-01-09T15:27:17;10.20;99.90
40828;DHT22;26549;50.918;5.338;2023-01-09T15:29:47;10.00;99.90
40828;DHT22;26549;50.918;5.338;2023-01-09T15:32:25;10.00;99.90
40828;DHT22;26549;50.918;5.338;2023-01-09T15:34:53;10.00;99.90
40828;DHT22;26549;50.918;5.338;2023-01-09T15:37:43;10.00;99.90
40828;DHT22;26549;50.918;5.338;2023-01-09T15:40:17;10.00;99.90
40828;DHT22;26549;50.918;5.338;2023-01-09T15:42:47;10.00;99.90
40828;DHT22;26549;50.918;5.338;2023-01-09T15:45:28;10.00;99.90
40828;DHT22;26549;50.918;5.338;2023-01-09T15:50:52;10.00;99.90
40828;DHT22;26549;50.918;5.338;2023-01-09T15:53:22;10.00;99.90
40828;DHT22;26549;50.918;5.338;2023-01-09T15:58:31;10.10;99.90
40828;DHT22;26549;50.918;5.338;2023-01-09T16:01:29;10.00;99.90
40828;DHT22;26549;50.918;5.338;2023-01-09T16:04:04;10.00;99.90
40828;DHT22;26549;50.918;5.338;2023-01-09T16:06:33;10.20;99.90
40828;DHT22;26549;50.918;5.338;2023-01-09T16:09:00;10.00;99.90
40828;DHT22;26549;50.918;5.338;2023-01-09T16:11:36;9.90;99.90
40828;DHT22;26549;50.918;5.338;2023-01-09T16:14:13;9.90;99.90
40828;DHT22;26549;50.918;5.338;2023-01-09T16:16:40;9.80;99.90
40828;DHT22;26549;50.918;5.338;2023-01-09T16:24:45;9.60;99.90
40828;DHT22;26549;50.918;5.338;2023-01-09T16:27:29;9.70;99.90
40828;DHT22;26549;50.918;5.338;2023-01-09T16:30:05;9.60;99.90
40828;DHT22;26549;50.918;5.338;2023-01-09T16:32:46;9.60;99.90
40828;DHT22;26549;50.918;5.338;2023-01-09T16:35:19;9.60;99.90
40828;DHT22;26549;50.918;5.338;2023-01-09T16:37:55;9.60;99.90
40828;DHT22;26549;50.918;5.338;2023-01-09T16:41:01;9.60;99.90
40828;DHT22;26549;50.918;5.338;2023-01-09T16:43:52;9.50;99.90
40828;DHT22;26549;50.918;5.338;2023-01-09T16:46:20;9.40;99.90
40828;DHT22;26549;50.918;5.338;2023-01-09T16:48:46;9.40;99.90
40828;DHT22;26549;50.918;5.338;2023-01-09T16:51:20;9.40;99.90
40828;DHT22;26549;50.918;5.338;2023-01-09T16:53:48;9.40;99.90
40828;DHT22;26549;50.918;5.338;2023-01-09T16:56:19;9.30;99.90
40828;DHT22;26549;50.918;5.338;2023-01-09T16:58:50;9.30;99.90
40828;DHT22;26549;50.918;5.338;2023-01-09T17:01:17;9.30;99.90
40828;DHT22;26549;50.918;5.338;2023-01-09T17:03:43;9.40;99.90
40828;DHT22;26549;50.918;5.338;2023-01-09T17:06:15;9.30;99.90
40828;DHT22;26549;50.918;5.338;2023-01-09T17:08:42;9.40;99.90
40828;DHT22;26549;50.918;5.338;2023-01-09T17:11:18;9.20;99.90
40828;DHT22;26549;50.918;5.338;2023-01-09T17:13:45;9.30;99.90
40828;DHT22;26549;50.918;5.338;2023-01-09T17:16:15;9.20;99.90
40828;DHT22;26549;50.918;5.338;2023-01-09T17:18:41;9.30;99.90
40828;DHT22;26549;50.918;5.338;2023-01-09T17:21:26;9.30;99.90
40828;DHT22;26549;50.918;5.338;2023-01-09T17:23:58;9.40;99.90
40828;DHT22;26549;50.918;5.338;2023-01-09T17:26:47;9.30;99.90
40828;DHT22;26549;50.918;5.338;2023-01-09T17:29:33;9.40;99.90
40828;DHT22;26549;50.918;5.338;2023-01-09T17:32:00;9.40;99.90
40828;DHT22;26549;50.918;5.338;2023-01-09T17:34:26;9.40;99.90
40828;DHT22;26549;50.918;5.338;2023-01-09T17:36:55;9.40;99.90
40828;DHT22;26549;50.918;5.338;2023-01-09T17:39:21;9.40;99.90
40828;DHT22;26549;50.918;5.338;2023-01-09T17:41:51;9.30;99.90
40828;DHT22;26549;50.918;5.338;2023-01-09T17:44:18;9.30;99.90
40828;DHT22;26549;50.918;5.338;2023-01-09T17:46:51;9.40;99.90
40828;DHT22;26549;50.918;5.338;2023-01-09T17:49:20;9.40;99.90
40828;DHT22;26549;50.918;5.338;2023-01-09T17:51:45;9.40;99.90
40828;DHT22;26549;50.918;5.338;2023-01-09T17:54:12;9.40;99.90
40828;DHT22;26549;50.918;5.338;2023-01-09T17:56:42;9.40;99.90
40828;DHT22;26549;50.918;5.338;2023-01-09T17:59:13;9.40;99.90
40828;DHT22;26549;50.918;5.338;2023-01-09T18:01:40;9.40;99.90
40828;DHT22;26549;50.918;5.338;2023-01-09T18:04:09;9.40;99.90
40828;DHT22;26549;50.918;5.338;2023-01-09T18:06:37;9.30;99.90
40828;DHT22;26549;50.918;5.338;2023-01-09T18:09:04;9.20;99.90
40828;DHT22;26549;50.918;5.338;2023-01-09T18:11:29;9.10;99.90
40828;DHT22;26549;50.918;5.338;2023-01-09T18:13:55;9.10;99.90
40828;DHT22;26549;50.918;5.338;2023-01-09T18:16:23;8.90;99.90
40828;DHT22;26549;50.918;5.338;2023-01-09T18:18:50;9.00;99.90
40828;DHT22;26549;50.918;5.338;2023-01-09T18:21:18;9.10;99.90
40828;DHT22;26549;50.918;5.338;2023-01-09T18:23:45;9.00;99.90
40828;DHT22;26549;50.918;5.338;2023-01-09T18:26:11;9.20;99.90
40828;DHT22;26549;50.918;5.338;2023-01-09T18:28:45;9.30;99.90
40828;DHT22;26549;50.918;5.338;2023-01-09T18:31:11;9.30;99.90